sensor_id;sensor_type;location;lat;lon;timestamp;P1;durP1;ratioP1;P2;durP2;ratioP2
84877;SDS011;75140;47.754;8.840;2024-02-16T00:00:58;10.50;;;6.13;;
84877;SDS011;75140;47.754;8.840;2024-02-16T00:03:25;10.88;;;6.65;;
84877;SDS011;75140;47.754;8.840;2024-02-16T00:05:51;16.88;;;8.70;;
84877;SDS011;75140;47.754;8.840;2024-02-16T00:08:17;11.63;;;7.37;;
84877;SDS011;75140;47.754;8.840;2024-02-16T00:10:43;11.55;;;7.13;;
84877;SDS011;75140;47.754;8.840;2024-02-16T00:13:09;10.57;;;6.80;;
84877;SDS011;75140;47.754;8.840;2024-02-16T00:15:35;15.23;;;6.40;;
84877;SDS011;75140;47.754;8.840;2024-02-16T00:18:00;14.83;;;7.40;;
84877;SDS011;75140;47.754;8.840;2024-02-16T00:20:25;12.00;;;7.40;;
84877;SDS011;75140;47.754;8.840;2024-02-16T00:22:50;12.57;;;6.23;;
84877;SDS011;75140;47.754;8.840;2024-02-16T00:25:16;11.45;;;7.45;;
84877;SDS011;75140;47.754;8.840;2024-02-16T00:27:43;12.15;;;7.90;;
84877;SDS011;75140;47.754;8.840;2024-02-16T00:30:08;12.98;;;6.53;;
84877;SDS011;75140;47.754;8.840;2024-02-16T00:32:35;10.02;;;6.53;;
84877;SDS011;75140;47.754;8.840;2024-02-16T00:35:02;11.68;;;6.78;;
84877;SDS011;75140;47.754;8.840;2024-02-16T00:37:27;11.52;;;5.30;;
84877;SDS011;75140;47.754;8.840;2024-02-16T00:39:53;11.05;;;6.43;;
84877;SDS011;75140;47.754;8.840;2024-02-16T00:42:19;11.13;;;5.63;;
84877;SDS011;75140;47.754;8.840;2024-02-16T00:44:45;14.85;;;6.30;;
84877;SDS011;75140;47.754;8.840;2024-02-16T00:47:10;10.97;;;6.13;;
84877;SDS011;75140;47.754;8.840;2024-02-16T00:49:35;10.43;;;5.80;;
84877;SDS011;75140;47.754;8.840;2024-02-16T00:52:01;8.87;;;5.43;;
84877;SDS011;75140;47.754;8.840;2024-02-16T00:54:27;11.32;;;5.90;;
84877;SDS011;75140;47.754;8.840;2024-02-16T00:56:52;12.97;;;6.30;;
84877;SDS011;75140;47.754;8.840;2024-02-16T00:59:19;13.32;;;6.68;;
84877;SDS011;75140;47.754;8.840;2024-02-16T01:01:46;11.07;;;6.45;;
84877;SDS011;75140;47.754;8.840;2024-02-16T01:04:11;13.23;;;6.07;;
84877;SDS011;75140;47.754;8.840;2024-02-16T01:06:37;10.80;;;5.72;;
84877;SDS011;75140;47.754;8.840;2024-02-16T01:09:02;9.60;;;5.27;;
84877;SDS011;75140;47.754;8.840;2024-02-16T01:11:28;7.95;;;5.88;;
84877;SDS011;75140;47.754;8.840;2024-02-16T01:13:53;10.90;;;6.45;;
84877;SDS011;75140;47.754;8.840;2024-02-16T01:16:19;11.77;;;6.60;;
84877;SDS011;75140;47.754;8.840;2024-02-16T01:18:44;16.30;;;6.43;;
84877;SDS011;75140;47.754;8.840;2024-02-16T01:21:10;11.88;;;6.68;;
84877;SDS011;75140;47.754;8.840;2024-02-16T01:23:36;10.55;;;6.15;;
84877;SDS011;75140;47.754;8.840;2024-02-16T01:26:01;13.47;;;7.10;;
84877;SDS011;75140;47.754;8.840;2024-02-16T01:28:27;13.63;;;6.88;;
84877;SDS011;75140;47.754;8.840;2024-02-16T01:30:52;12.83;;;6.73;;
84877;SDS011;75140;47.754;8.840;2024-02-16T01:33:17;12.03;;;6.20;;
84877;SDS011;75140;47.754;8.840;2024-02-16T01:35:44;14.02;;;7.13;;
84877;SDS011;75140;47.754;8.840;2024-02-16T01:38:11;11.00;;;6.30;;
84877;SDS011;75140;47.754;8.840;2024-02-16T01:40:36;11.48;;;6.57;;
84877;SDS011;75140;47.754;8.840;2024-02-16T01:43:02;11.43;;;6.55;;
84877;SDS011;75140;47.754;8.840;2024-02-16T01:45:27;12.13;;;6.22;;
84877;SDS011;75140;47.754;8.840;2024-02-16T01:47:53;11.60;;;6.53;;
84877;SDS011;75140;47.754;8.840;2024-02-16T01:50:19;9.65;;;5.22;;
84877;SDS011;75140;47.754;8.840;2024-02-16T01:52:45;11.10;;;6.32;;
84877;SDS011;75140;47.754;8.840;2024-02-16T01:55:12;13.38;;;7.47;;
84877;SDS011;75140;47.754;8.840;2024-02-16T01:57:45;11.90;;;5.75;;
84877;SDS011;75140;47.754;8.840;2024-02-16T02:00:12;10.88;;;7.05;;
84877;SDS011;75140;47.754;8.840;2024-02-16T02:02:40;11.50;;;7.15;;
84877;SDS011;75140;47.754;8.840;2024-02-16T02:05:06;12.60;;;6.35;;
84877;SDS011;75140;47.754;8.840;2024-02-16T02:07:31;8.80;;;5.78;;
84877;SDS011;75140;47.754;8.840;2024-02-16T02:09:57;12.13;;;6.53;;
84877;SDS011;75140;47.754;8.840;2024-02-16T02:12:22;10.57;;;5.97;;
84877;SDS011;75140;47.754;8.840;2024-02-16T02:14:48;12.73;;;6.28;;
84877;SDS011;75140;47.754;8.840;2024-02-16T02:17:14;9.57;;;5.57;;
84877;SDS011;75140;47.754;8.840;2024-02-16T02:19:40;8.57;;;7.00;;
84877;SDS011;75140;47.754;8.840;2024-02-16T02:22:11;6.67;;;4.93;;
84877;SDS011;75140;47.754;8.840;2024-02-16T02:24:46;10.10;;;5.55;;
84877;SDS011;75140;47.754;8.840;2024-02-16T02:27:13;9.25;;;5.75;;
84877;SDS011;75140;47.754;8.840;2024-02-16T02:29:39;9.95;;;5.75;;
84877;SDS011;75140;47.754;8.840;2024-02-16T02:32:06;9.07;;;6.07;;
84877;SDS011;75140;47.754;8.840;2024-02-16T02:34:32;11.20;;;5.35;;
84877;SDS011;75140;47.754;8.840;2024-02-16T02:36:58;8.07;;;4.82;;
84877;SDS011;75140;47.754;8.840;2024-02-16T02:39:25;7.03;;;5.00;;
84877;SDS011;75140;47.754;8.840;2024-02-16T02:41:51;9.43;;;4.78;;
84877;SDS011;75140;47.754;8.840;2024-02-16T02:44:16;8.75;;;4.90;;
84877;SDS011;75140;47.754;8.840;2024-02-16T02:46:43;7.18;;;4.60;;
84877;SDS011;75140;47.754;8.840;2024-02-16T02:49:08;10.82;;;4.63;;
84877;SDS011;75140;47.754;8.840;2024-02-16T02:51:34;9.63;;;5.53;;
84877;SDS011;75140;47.754;8.840;2024-02-16T02:53:59;6.20;;;3.97;;
84877;SDS011;75140;47.754;8.840;2024-02-16T02:56:24;7.90;;;5.00;;
84877;SDS011;75140;47.754;8.840;2024-02-16T02:58:50;6.23;;;4.57;;
84877;SDS011;75140;47.754;8.840;2024-02-16T03:01:15;9.07;;;4.57;;
84877;SDS011;75140;47.754;8.840;2024-02-16T03:03:41;6.65;;;4.32;;
84877;SDS011;75140;47.754;8.840;2024-02-16T03:06:07;10.98;;;5.00;;
84877;SDS011;75140;47.754;8.840;2024-02-16T03:08:33;6.30;;;4.50;;
84877;SDS011;75140;47.754;8.840;2024-02-16T03:11:00;5.85;;;4.18;;
84877;SDS011;75140;47.754;8.840;2024-02-16T03:13:25;7.80;;;4.70;;
84877;SDS011;75140;47.754;8.840;2024-02-16T03:15:50;7.73;;;4.17;;
84877;SDS011;75140;47.754;8.840;2024-02-16T03:18:16;7.47;;;4.40;;
84877;SDS011;75140;47.754;8.840;2024-02-16T03:20:41;9.60;;;4.63;;
84877;SDS011;75140;47.754;8.840;2024-02-16T03:23:10;5.60;;;4.00;;
84877;SDS011;75140;47.754;8.840;2024-02-16T03:25:36;6.38;;;4.35;;
84877;SDS011;75140;47.754;8.840;2024-02-16T03:28:01;8.03;;;4.53;;
84877;SDS011;75140;47.754;8.840;2024-02-16T03:30:27;5.55;;;4.40;;
84877;SDS011;75140;47.754;8.840;2024-02-16T03:32:52;6.57;;;4.90;;
84877;SDS011;75140;47.754;8.840;2024-02-16T03:35:18;8.52;;;4.47;;
84877;SDS011;75140;47.754;8.840;2024-02-16T03:37:44;8.07;;;5.00;;
84877;SDS011;75140;47.754;8.840;2024-02-16T03:40:10;7.85;;;4.10;;
84877;SDS011;75140;47.754;8.840;2024-02-16T03:42:37;7.60;;;4.28;;
84877;SDS011;75140;47.754;8.840;2024-02-16T03:45:03;7.75;;;3.70;;
84877;SDS011;75140;47.754;8.840;2024-02-16T03:47:29;6.28;;;3.83;;
84877;SDS011;75140;47.754;8.840;2024-02-16T03:49:54;7.40;;;4.50;;
84877;SDS011;75140;47.754;8.840;2024-02-16T03:52:19;7.72;;;4.78;;
84877;SDS011;75140;47.754;8.840;2024-02-16T03:54:45;7.67;;;3.93;;
84877;SDS011;75140;47.754;8.840;2024-02-16T03:57:13;8.55;;;4.28;;
84877;SDS011;75140;47.754;8.840;2024-02-16T03:59:42;6.57;;;4.00;;
84877;SDS011;75140;47.754;8.840;2024-02-16T04:02:08;7.47;;;4.60;;
84877;SDS011;75140;47.754;8.840;2024-02-16T04:04:34;10.75;;;4.32;;
84877;SDS011;75140;47.754;8.840;2024-02-16T04:07:00;8.70;;;5.07;;
84877;SDS011;75140;47.754;8.840;2024-02-16T04:09:25;5.43;;;3.80;;
84877;SDS011;75140;47.754;8.840;2024-02-16T04:11:51;6.77;;;4.40;;
84877;SDS011;75140;47.754;8.840;2024-02-16T04:14:16;5.83;;;3.53;;
84877;SDS011;75140;47.754;8.840;2024-02-16T04:16:42;8.13;;;4.80;;
84877;SDS011;75140;47.754;8.840;2024-02-16T04:19:08;5.72;;;4.05;;
84877;SDS011;75140;47.754;8.840;2024-02-16T04:21:34;7.68;;;4.43;;
84877;SDS011;75140;47.754;8.840;2024-02-16T04:23:59;6.63;;;3.50;;
84877;SDS011;75140;47.754;8.840;2024-02-16T04:26:24;7.60;;;3.97;;
84877;SDS011;75140;47.754;8.840;2024-02-16T04:28:50;5.40;;;3.70;;
84877;SDS011;75140;47.754;8.840;2024-02-16T04:31:15;7.20;;;4.43;;
84877;SDS011;75140;47.754;8.840;2024-02-16T04:33:41;8.50;;;4.38;;
84877;SDS011;75140;47.754;8.840;2024-02-16T04:36:06;6.97;;;4.03;;
84877;SDS011;75140;47.754;8.840;2024-02-16T04:38:32;6.28;;;4.32;;
84877;SDS011;75140;47.754;8.840;2024-02-16T04:40:58;8.13;;;4.33;;
84877;SDS011;75140;47.754;8.840;2024-02-16T04:43:23;6.90;;;4.40;;
84877;SDS011;75140;47.754;8.840;2024-02-16T04:45:49;6.35;;;3.80;;
84877;SDS011;75140;47.754;8.840;2024-02-16T04:48:14;6.15;;;4.20;;
84877;SDS011;75140;47.754;8.840;2024-02-16T04:50:39;7.70;;;4.10;;
84877;SDS011;75140;47.754;8.840;2024-02-16T04:53:05;8.87;;;3.83;;
84877;SDS011;75140;47.754;8.840;2024-02-16T04:55:30;11.00;;;4.70;;
84877;SDS011;75140;47.754;8.840;2024-02-16T04:57:56;12.20;;;5.15;;
84877;SDS011;75140;47.754;8.840;2024-02-16T05:00:22;7.22;;;4.15;;
84877;SDS011;75140;47.754;8.840;2024-02-16T05:02:48;7.97;;;4.10;;
84877;SDS011;75140;47.754;8.840;2024-02-16T05:05:13;8.13;;;4.40;;
84877;SDS011;75140;47.754;8.840;2024-02-16T05:07:40;6.07;;;4.07;;
84877;SDS011;75140;47.754;8.840;2024-02-16T05:10:10;8.80;;;4.43;;
84877;SDS011;75140;47.754;8.840;2024-02-16T05:12:36;7.10;;;3.95;;
84877;SDS011;75140;47.754;8.840;2024-02-16T05:15:02;7.55;;;4.00;;
84877;SDS011;75140;47.754;8.840;2024-02-16T05:17:28;6.35;;;4.15;;
84877;SDS011;75140;47.754;8.840;2024-02-16T05:19:54;5.67;;;4.13;;
84877;SDS011;75140;47.754;8.840;2024-02-16T05:22:19;8.97;;;4.23;;
84877;SDS011;75140;47.754;8.840;2024-02-16T05:24:46;9.77;;;5.80;;
84877;SDS011;75140;47.754;8.840;2024-02-16T05:27:12;7.80;;;4.95;;
84877;SDS011;75140;47.754;8.840;2024-02-16T05:29:38;9.40;;;5.60;;
84877;SDS011;75140;47.754;8.840;2024-02-16T05:32:03;8.68;;;5.05;;
84877;SDS011;75140;47.754;8.840;2024-02-16T05:34:29;8.48;;;5.43;;
84877;SDS011;75140;47.754;8.840;2024-02-16T05:36:58;8.82;;;4.70;;
84877;SDS011;75140;47.754;8.840;2024-02-16T05:39:23;9.88;;;5.65;;
84877;SDS011;75140;47.754;8.840;2024-02-16T05:41:52;9.88;;;5.00;;
84877;SDS011;75140;47.754;8.840;2024-02-16T05:44:18;6.82;;;5.20;;
84877;SDS011;75140;47.754;8.840;2024-02-16T05:46:44;8.77;;;5.10;;
84877;SDS011;75140;47.754;8.840;2024-02-16T05:49:10;7.93;;;5.45;;
84877;SDS011;75140;47.754;8.840;2024-02-16T05:51:36;9.03;;;4.93;;
84877;SDS011;75140;47.754;8.840;2024-02-16T05:54:02;7.78;;;6.22;;
84877;SDS011;75140;47.754;8.840;2024-02-16T05:56:28;8.05;;;4.57;;
84877;SDS011;75140;47.754;8.840;2024-02-16T05:58:53;7.90;;;4.70;;
84877;SDS011;75140;47.754;8.840;2024-02-16T06:01:19;8.52;;;5.15;;
84877;SDS011;75140;47.754;8.840;2024-02-16T06:03:44;6.72;;;4.78;;
84877;SDS011;75140;47.754;8.840;2024-02-16T06:06:10;9.77;;;5.20;;
84877;SDS011;75140;47.754;8.840;2024-02-16T06:08:35;7.27;;;5.70;;
84877;SDS011;75140;47.754;8.840;2024-02-16T06:11:00;10.07;;;6.00;;
84877;SDS011;75140;47.754;8.840;2024-02-16T06:13:27;7.10;;;4.60;;
84877;SDS011;75140;47.754;8.840;2024-02-16T06:15:53;7.50;;;4.40;;
84877;SDS011;75140;47.754;8.840;2024-02-16T06:18:18;8.97;;;4.30;;
84877;SDS011;75140;47.754;8.840;2024-02-16T06:20:44;7.53;;;4.88;;
84877;SDS011;75140;47.754;8.840;2024-02-16T06:23:10;7.82;;;4.70;;
84877;SDS011;75140;47.754;8.840;2024-02-16T06:25:35;6.93;;;3.88;;
84877;SDS011;75140;47.754;8.840;2024-02-16T06:28:01;9.60;;;4.95;;
84877;SDS011;75140;47.754;8.840;2024-02-16T06:30:27;7.38;;;4.22;;
84877;SDS011;75140;47.754;8.840;2024-02-16T06:32:53;9.45;;;5.50;;
84877;SDS011;75140;47.754;8.840;2024-02-16T06:35:20;7.22;;;4.65;;
84877;SDS011;75140;47.754;8.840;2024-02-16T06:37:45;7.70;;;4.40;;
84877;SDS011;75140;47.754;8.840;2024-02-16T06:40:11;6.80;;;4.80;;
84877;SDS011;75140;47.754;8.840;2024-02-16T06:42:36;6.57;;;4.55;;
84877;SDS011;75140;47.754;8.840;2024-02-16T06:45:03;8.57;;;4.88;;
84877;SDS011;75140;47.754;8.840;2024-02-16T06:47:30;7.35;;;4.45;;
84877;SDS011;75140;47.754;8.840;2024-02-16T06:49:58;7.95;;;4.32;;
84877;SDS011;75140;47.754;8.840;2024-02-16T06:52:24;5.80;;;3.97;;
84877;SDS011;75140;47.754;8.840;2024-02-16T06:54:49;5.93;;;4.13;;
84877;SDS011;75140;47.754;8.840;2024-02-16T06:57:15;7.10;;;4.60;;
84877;SDS011;75140;47.754;8.840;2024-02-16T06:59:41;5.43;;;3.67;;
84877;SDS011;75140;47.754;8.840;2024-02-16T07:02:06;7.30;;;5.60;;
84877;SDS011;75140;47.754;8.840;2024-02-16T07:04:32;8.30;;;4.60;;
84877;SDS011;75140;47.754;8.840;2024-02-16T07:06:57;6.05;;;4.50;;
84877;SDS011;75140;47.754;8.840;2024-02-16T07:09:23;7.20;;;3.63;;
84877;SDS011;75140;47.754;8.840;2024-02-16T07:11:48;6.87;;;3.80;;
84877;SDS011;75140;47.754;8.840;2024-02-16T07:14:15;7.70;;;4.43;;
84877;SDS011;75140;47.754;8.840;2024-02-16T07:16:41;11.30;;;4.20;;
84877;SDS011;75140;47.754;8.840;2024-02-16T07:19:06;7.87;;;4.97;;
84877;SDS011;75140;47.754;8.840;2024-02-16T07:21:32;9.88;;;5.90;;
84877;SDS011;75140;47.754;8.840;2024-02-16T07:23:57;8.70;;;4.28;;
84877;SDS011;75140;47.754;8.840;2024-02-16T07:26:23;7.45;;;4.47;;
84877;SDS011;75140;47.754;8.840;2024-02-16T07:28:49;5.38;;;3.53;;
84877;SDS011;75140;47.754;8.840;2024-02-16T07:31:14;9.40;;;5.55;;
84877;SDS011;75140;47.754;8.840;2024-02-16T07:33:40;7.68;;;4.65;;
84877;SDS011;75140;47.754;8.840;2024-02-16T07:36:06;7.30;;;4.07;;
84877;SDS011;75140;47.754;8.840;2024-02-16T07:38:32;10.32;;;4.22;;
84877;SDS011;75140;47.754;8.840;2024-02-16T07:40:58;8.48;;;4.40;;
84877;SDS011;75140;47.754;8.840;2024-02-16T07:43:24;7.82;;;4.63;;
84877;SDS011;75140;47.754;8.840;2024-02-16T07:45:50;8.45;;;5.90;;
84877;SDS011;75140;47.754;8.840;2024-02-16T07:48:18;10.52;;;5.55;;
84877;SDS011;75140;47.754;8.840;2024-02-16T07:50:44;7.57;;;4.80;;
84877;SDS011;75140;47.754;8.840;2024-02-16T07:53:09;7.67;;;5.20;;
84877;SDS011;75140;47.754;8.840;2024-02-16T07:55:36;8.73;;;4.88;;
84877;SDS011;75140;47.754;8.840;2024-02-16T07:58:01;7.15;;;4.85;;
84877;SDS011;75140;47.754;8.840;2024-02-16T08:00:27;7.15;;;5.32;;
84877;SDS011;75140;47.754;8.840;2024-02-16T08:02:53;10.25;;;5.00;;
84877;SDS011;75140;47.754;8.840;2024-02-16T08:05:19;8.93;;;5.97;;
84877;SDS011;75140;47.754;8.840;2024-02-16T08:07:44;8.25;;;5.47;;
84877;SDS011;75140;47.754;8.840;2024-02-16T08:10:12;7.70;;;5.22;;
84877;SDS011;75140;47.754;8.840;2024-02-16T08:12:37;8.95;;;4.95;;
84877;SDS011;75140;47.754;8.840;2024-02-16T08:15:03;11.50;;;5.47;;
84877;SDS011;75140;47.754;8.840;2024-02-16T08:17:31;10.57;;;5.47;;
84877;SDS011;75140;47.754;8.840;2024-02-16T08:19:58;9.93;;;5.03;;
84877;SDS011;75140;47.754;8.840;2024-02-16T08:22:23;9.77;;;5.43;;
84877;SDS011;75140;47.754;8.840;2024-02-16T08:24:49;10.87;;;5.77;;
84877;SDS011;75140;47.754;8.840;2024-02-16T08:27:15;12.32;;;6.32;;
84877;SDS011;75140;47.754;8.840;2024-02-16T08:29:41;9.90;;;6.10;;
84877;SDS011;75140;47.754;8.840;2024-02-16T08:32:07;10.75;;;6.05;;
84877;SDS011;75140;47.754;8.840;2024-02-16T08:34:33;11.05;;;6.18;;
84877;SDS011;75140;47.754;8.840;2024-02-16T08:37:02;10.52;;;6.47;;
84877;SDS011;75140;47.754;8.840;2024-02-16T08:39:28;8.35;;;5.55;;
84877;SDS011;75140;47.754;8.840;2024-02-16T08:41:54;10.02;;;6.05;;
84877;SDS011;75140;47.754;8.840;2024-02-16T08:44:20;10.32;;;6.78;;
84877;SDS011;75140;47.754;8.840;2024-02-16T08:46:45;8.87;;;5.93;;
84877;SDS011;75140;47.754;8.840;2024-02-16T08:49:13;13.80;;;6.38;;
84877;SDS011;75140;47.754;8.840;2024-02-16T08:51:39;12.00;;;7.28;;
84877;SDS011;75140;47.754;8.840;2024-02-16T08:54:04;12.13;;;5.70;;
84877;SDS011;75140;47.754;8.840;2024-02-16T08:56:30;7.78;;;5.80;;
84877;SDS011;75140;47.754;8.840;2024-02-16T08:58:56;9.55;;;6.95;;
84877;SDS011;75140;47.754;8.840;2024-02-16T09:01:31;9.35;;;6.03;;
84877;SDS011;75140;47.754;8.840;2024-02-16T09:03:57;9.77;;;7.40;;
84877;SDS011;75140;47.754;8.840;2024-02-16T09:06:23;11.43;;;6.93;;
84877;SDS011;75140;47.754;8.840;2024-02-16T09:08:48;10.15;;;6.38;;
84877;SDS011;75140;47.754;8.840;2024-02-16T09:11:13;12.60;;;7.47;;
84877;SDS011;75140;47.754;8.840;2024-02-16T09:13:39;10.80;;;6.30;;
84877;SDS011;75140;47.754;8.840;2024-02-16T09:16:05;9.13;;;6.22;;
84877;SDS011;75140;47.754;8.840;2024-02-16T09:18:31;11.40;;;6.85;;
84877;SDS011;75140;47.754;8.840;2024-02-16T09:20:57;10.50;;;6.70;;
84877;SDS011;75140;47.754;8.840;2024-02-16T09:23:22;9.45;;;7.13;;
84877;SDS011;75140;47.754;8.840;2024-02-16T09:25:48;9.85;;;6.70;;
84877;SDS011;75140;47.754;8.840;2024-02-16T09:28:14;13.13;;;6.97;;
84877;SDS011;75140;47.754;8.840;2024-02-16T09:30:39;9.88;;;6.82;;
84877;SDS011;75140;47.754;8.840;2024-02-16T09:33:05;8.00;;;6.28;;
84877;SDS011;75140;47.754;8.840;2024-02-16T09:35:32;15.40;;;6.88;;
84877;SDS011;75140;47.754;8.840;2024-02-16T09:37:57;11.27;;;6.47;;
84877;SDS011;75140;47.754;8.840;2024-02-16T09:40:23;10.80;;;6.07;;
84877;SDS011;75140;47.754;8.840;2024-02-16T09:42:48;8.48;;;6.72;;
84877;SDS011;75140;47.754;8.840;2024-02-16T09:45:14;10.75;;;6.68;;
84877;SDS011;75140;47.754;8.840;2024-02-16T09:47:41;9.25;;;6.25;;
84877;SDS011;75140;47.754;8.840;2024-02-16T09:50:09;8.95;;;6.43;;
84877;SDS011;75140;47.754;8.840;2024-02-16T09:52:35;9.32;;;6.07;;
84877;SDS011;75140;47.754;8.840;2024-02-16T09:55:01;9.25;;;5.38;;
84877;SDS011;75140;47.754;8.840;2024-02-16T09:57:26;10.75;;;6.20;;
84877;SDS011;75140;47.754;8.840;2024-02-16T09:59:51;6.93;;;5.20;;
84877;SDS011;75140;47.754;8.840;2024-02-16T10:02:17;10.20;;;6.17;;
84877;SDS011;75140;47.754;8.840;2024-02-16T10:04:42;10.00;;;6.53;;
84877;SDS011;75140;47.754;8.840;2024-02-16T10:07:08;9.20;;;6.10;;
84877;SDS011;75140;47.754;8.840;2024-02-16T10:09:33;9.90;;;5.83;;
84877;SDS011;75140;47.754;8.840;2024-02-16T10:11:58;8.67;;;6.10;;
84877;SDS011;75140;47.754;8.840;2024-02-16T10:14:24;9.63;;;5.57;;
84877;SDS011;75140;47.754;8.840;2024-02-16T10:17:03;8.48;;;5.82;;
84877;SDS011;75140;47.754;8.840;2024-02-16T10:19:30;6.88;;;5.47;;
84877;SDS011;75140;47.754;8.840;2024-02-16T10:22:08;7.43;;;4.93;;
84877;SDS011;75140;47.754;8.840;2024-02-16T10:24:37;9.90;;;5.32;;
84877;SDS011;75140;47.754;8.840;2024-02-16T10:27:04;7.82;;;5.03;;
84877;SDS011;75140;47.754;8.840;2024-02-16T10:29:43;7.28;;;4.65;;
84877;SDS011;75140;47.754;8.840;2024-02-16T10:32:10;8.57;;;5.78;;
84877;SDS011;75140;47.754;8.840;2024-02-16T10:34:36;10.02;;;5.63;;
84877;SDS011;75140;47.754;8.840;2024-02-16T10:37:04;8.02;;;4.80;;
84877;SDS011;75140;47.754;8.840;2024-02-16T10:39:31;8.73;;;6.43;;
84877;SDS011;75140;47.754;8.840;2024-02-16T10:41:57;11.23;;;5.13;;
84877;SDS011;75140;47.754;8.840;2024-02-16T10:44:25;8.15;;;4.70;;
84877;SDS011;75140;47.754;8.840;2024-02-16T10:46:53;8.18;;;4.72;;
84877;SDS011;75140;47.754;8.840;2024-02-16T10:49:21;9.18;;;4.57;;
84877;SDS011;75140;47.754;8.840;2024-02-16T10:51:49;7.20;;;4.68;;
84877;SDS011;75140;47.754;8.840;2024-02-16T10:54:19;7.80;;;4.25;;
84877;SDS011;75140;47.754;8.840;2024-02-16T10:56:47;6.55;;;4.57;;
84877;SDS011;75140;47.754;8.840;2024-02-16T10:59:13;11.02;;;4.13;;
84877;SDS011;75140;47.754;8.840;2024-02-16T11:01:39;6.55;;;4.47;;
84877;SDS011;75140;47.754;8.840;2024-02-16T11:04:07;6.55;;;4.28;;
84877;SDS011;75140;47.754;8.840;2024-02-16T11:06:52;6.35;;;5.47;;
84877;SDS011;75140;47.754;8.840;2024-02-16T11:09:38;5.88;;;3.67;;
84877;SDS011;75140;47.754;8.840;2024-02-16T11:12:05;6.18;;;4.07;;
84877;SDS011;75140;47.754;8.840;2024-02-16T11:14:45;9.15;;;4.68;;
84877;SDS011;75140;47.754;8.840;2024-02-16T11:17:12;5.53;;;4.22;;
84877;SDS011;75140;47.754;8.840;2024-02-16T11:19:46;8.15;;;5.40;;
84877;SDS011;75140;47.754;8.840;2024-02-16T11:22:18;5.80;;;4.20;;
84877;SDS011;75140;47.754;8.840;2024-02-16T11:24:45;7.70;;;4.13;;
84877;SDS011;75140;47.754;8.840;2024-02-16T11:27:12;5.80;;;3.65;;
84877;SDS011;75140;47.754;8.840;2024-02-16T11:29:40;6.18;;;4.05;;
84877;SDS011;75140;47.754;8.840;2024-02-16T11:32:06;6.07;;;3.63;;
84877;SDS011;75140;47.754;8.840;2024-02-16T11:34:33;5.60;;;4.25;;
84877;SDS011;75140;47.754;8.840;2024-02-16T11:36:59;6.00;;;3.85;;
84877;SDS011;75140;47.754;8.840;2024-02-16T11:39:26;4.20;;;3.42;;
84877;SDS011;75140;47.754;8.840;2024-02-16T11:42:05;4.82;;;3.47;;
84877;SDS011;75140;47.754;8.840;2024-02-16T11:44:38;4.13;;;3.50;;
84877;SDS011;75140;47.754;8.840;2024-02-16T11:47:05;6.50;;;3.72;;
84877;SDS011;75140;47.754;8.840;2024-02-16T11:49:34;7.03;;;3.75;;
84877;SDS011;75140;47.754;8.840;2024-02-16T11:51:59;4.30;;;3.08;;
84877;SDS011;75140;47.754;8.840;2024-02-16T11:54:25;4.80;;;3.25;;
84877;SDS011;75140;47.754;8.840;2024-02-16T11:56:51;7.03;;;3.00;;
84877;SDS011;75140;47.754;8.840;2024-02-16T11:59:17;4.53;;;2.72;;
84877;SDS011;75140;47.754;8.840;2024-02-16T12:04:23;5.82;;;3.40;;
84877;SDS011;75140;47.754;8.840;2024-02-16T12:06:51;3.55;;;2.28;;
84877;SDS011;75140;47.754;8.840;2024-02-16T12:09:23;4.65;;;3.05;;
84877;SDS011;75140;47.754;8.840;2024-02-16T12:11:50;5.55;;;3.13;;
84877;SDS011;75140;47.754;8.840;2024-02-16T12:14:17;3.92;;;2.50;;
84877;SDS011;75140;47.754;8.840;2024-02-16T12:16:46;6.47;;;2.50;;
84877;SDS011;75140;47.754;8.840;2024-02-16T12:19:12;3.35;;;2.50;;
84877;SDS011;75140;47.754;8.840;2024-02-16T12:21:38;6.18;;;2.83;;
84877;SDS011;75140;47.754;8.840;2024-02-16T12:24:04;4.72;;;2.45;;
84877;SDS011;75140;47.754;8.840;2024-02-16T12:26:29;8.13;;;2.90;;
84877;SDS011;75140;47.754;8.840;2024-02-16T12:28:54;7.27;;;2.90;;
84877;SDS011;75140;47.754;8.840;2024-02-16T12:31:20;3.53;;;2.63;;
84877;SDS011;75140;47.754;8.840;2024-02-16T12:33:47;3.70;;;2.20;;
84877;SDS011;75140;47.754;8.840;2024-02-16T12:36:12;3.53;;;2.55;;
84877;SDS011;75140;47.754;8.840;2024-02-16T12:38:38;3.13;;;2.40;;
84877;SDS011;75140;47.754;8.840;2024-02-16T12:41:03;4.93;;;2.13;;
84877;SDS011;75140;47.754;8.840;2024-02-16T12:43:29;6.97;;;2.58;;
84877;SDS011;75140;47.754;8.840;2024-02-16T12:45:54;4.05;;;2.45;;
84877;SDS011;75140;47.754;8.840;2024-02-16T12:48:20;3.53;;;2.08;;
84877;SDS011;75140;47.754;8.840;2024-02-16T12:50:45;3.70;;;2.08;;
84877;SDS011;75140;47.754;8.840;2024-02-16T12:53:12;6.75;;;2.42;;
84877;SDS011;75140;47.754;8.840;2024-02-16T12:55:37;7.03;;;2.40;;
84877;SDS011;75140;47.754;8.840;2024-02-16T12:58:03;3.90;;;2.00;;
84877;SDS011;75140;47.754;8.840;2024-02-16T13:00:28;3.15;;;1.80;;
84877;SDS011;75140;47.754;8.840;2024-02-16T13:02:54;4.72;;;2.35;;
84877;SDS011;75140;47.754;8.840;2024-02-16T13:05:19;3.25;;;1.50;;
84877;SDS011;75140;47.754;8.840;2024-02-16T13:07:45;4.95;;;2.47;;
84877;SDS011;75140;47.754;8.840;2024-02-16T13:10:10;2.80;;;1.40;;
84877;SDS011;75140;47.754;8.840;2024-02-16T13:12:36;5.07;;;1.60;;
84877;SDS011;75140;47.754;8.840;2024-02-16T13:15:03;3.30;;;1.52;;
84877;SDS011;75140;47.754;8.840;2024-02-16T13:17:30;4.72;;;1.92;;
84877;SDS011;75140;47.754;8.840;2024-02-16T13:19:55;4.93;;;1.58;;
84877;SDS011;75140;47.754;8.840;2024-02-16T13:22:28;2.38;;;1.00;;
84877;SDS011;75140;47.754;8.840;2024-02-16T13:24:53;3.53;;;1.03;;
84877;SDS011;75140;47.754;8.840;2024-02-16T13:27:19;5.22;;;1.60;;
84877;SDS011;75140;47.754;8.840;2024-02-16T13:29:44;2.57;;;1.10;;
84877;SDS011;75140;47.754;8.840;2024-02-16T13:32:10;3.37;;;1.00;;
84877;SDS011;75140;47.754;8.840;2024-02-16T13:34:35;3.25;;;1.35;;
84877;SDS011;75140;47.754;8.840;2024-02-16T13:37:01;2.70;;;1.10;;
84877;SDS011;75140;47.754;8.840;2024-02-16T13:39:26;5.20;;;1.50;;
84877;SDS011;75140;47.754;8.840;2024-02-16T13:41:52;2.17;;;1.55;;
84877;SDS011;75140;47.754;8.840;2024-02-16T13:44:18;3.80;;;1.00;;
84877;SDS011;75140;47.754;8.840;2024-02-16T13:46:47;3.60;;;1.27;;
84877;SDS011;75140;47.754;8.840;2024-02-16T13:49:13;4.68;;;1.52;;
84877;SDS011;75140;47.754;8.840;2024-02-16T13:51:39;3.97;;;1.52;;
84877;SDS011;75140;47.754;8.840;2024-02-16T13:54:05;1.55;;;1.15;;
84877;SDS011;75140;47.754;8.840;2024-02-16T13:56:30;3.92;;;1.90;;
84877;SDS011;75140;47.754;8.840;2024-02-16T13:58:55;5.83;;;1.30;;
84877;SDS011;75140;47.754;8.840;2024-02-16T14:01:21;5.07;;;1.57;;
84877;SDS011;75140;47.754;8.840;2024-02-16T14:03:46;4.90;;;1.38;;
84877;SDS011;75140;47.754;8.840;2024-02-16T14:06:12;3.60;;;1.27;;
84877;SDS011;75140;47.754;8.840;2024-02-16T14:08:37;1.57;;;1.03;;
84877;SDS011;75140;47.754;8.840;2024-02-16T14:11:02;2.07;;;1.03;;
84877;SDS011;75140;47.754;8.840;2024-02-16T14:13:28;2.70;;;1.05;;
84877;SDS011;75140;47.754;8.840;2024-02-16T14:15:53;3.65;;;1.52;;
84877;SDS011;75140;47.754;8.840;2024-02-16T14:18:19;3.58;;;1.38;;
84877;SDS011;75140;47.754;8.840;2024-02-16T14:20:44;5.60;;;1.40;;
84877;SDS011;75140;47.754;8.840;2024-02-16T14:23:10;5.40;;;2.10;;
84877;SDS011;75140;47.754;8.840;2024-02-16T14:25:35;5.30;;;2.50;;
84877;SDS011;75140;47.754;8.840;2024-02-16T14:28:05;4.65;;;1.45;;
84877;SDS011;75140;47.754;8.840;2024-02-16T14:30:31;3.55;;;1.33;;
84877;SDS011;75140;47.754;8.840;2024-02-16T14:32:59;4.05;;;1.27;;
84877;SDS011;75140;47.754;8.840;2024-02-16T14:35:25;5.00;;;1.50;;
84877;SDS011;75140;47.754;8.840;2024-02-16T14:37:50;1.97;;;1.13;;
84877;SDS011;75140;47.754;8.840;2024-02-16T14:40:15;4.95;;;1.27;;